createdAt,value
2022-12-20T00:00:53.004Z,39.60
2022-12-20T00:03:23.288Z,31.63
2022-12-20T00:05:50.208Z,32.87
2022-12-20T00:08:17.336Z,33.67
2022-12-20T00:10:45.723Z,36.57
2022-12-20T00:13:13.310Z,33.60
2022-12-20T00:15:40.324Z,40.77
2022-12-20T00:18:07.548Z,38.47
2022-12-20T00:20:35.425Z,37.93
2022-12-20T00:23:02.894Z,32.37
2022-12-20T00:25:29.819Z,38.33
2022-12-20T00:27:57.077Z,41.13
2022-12-20T00:30:23.988Z,41.57
2022-12-20T00:32:51.220Z,35.77
2022-12-20T00:35:18.069Z,31.70
2022-12-20T00:37:45.447Z,35.30
2022-12-20T00:40:12.431Z,38.80
2022-12-20T00:42:39.609Z,33.27
2022-12-20T00:45:06.878Z,29.20
2022-12-20T00:47:34.078Z,29.80
2022-12-20T00:50:00.916Z,31.80
2022-12-20T00:52:28.386Z,33.73
2022-12-20T00:54:55.187Z,38.77
2022-12-20T00:57:22.358Z,39.40
2022-12-20T00:59:49.187Z,32.27
2022-12-20T01:02:16.553Z,46.80
2022-12-20T01:04:43.627Z,28.57
2022-12-20T01:07:11.353Z,33.93
2022-12-20T01:09:39.005Z,34.20
2022-12-20T01:12:06.350Z,32.33
2022-12-20T01:14:33.190Z,41.27
2022-12-20T01:17:00.430Z,40.03
2022-12-20T01:19:27.343Z,38.97
2022-12-20T01:21:54.490Z,37.43
2022-12-20T01:24:21.353Z,34.60
2022-12-20T01:26:48.807Z,39.40
2022-12-20T01:29:15.698Z,61.30
2022-12-20T01:31:43.209Z,37.00
2022-12-20T01:34:11.181Z,46.63
2022-12-20T01:36:38.782Z,55.13
2022-12-20T01:39:08.657Z,45.10
2022-12-20T01:41:38.397Z,40.90
2022-12-20T01:44:17.270Z,44.43
2022-12-20T01:46:46.769Z,35.23
2022-12-20T01:49:25.113Z,35.73
2022-12-20T01:51:56.038Z,54.30
2022-12-20T01:54:36.380Z,36.00
2022-12-20T01:57:09.575Z,44.23
2022-12-20T01:59:38.930Z,35.90
2022-12-20T02:02:10.333Z,40.50
2022-12-20T02:04:37.268Z,34.70
2022-12-20T02:07:05.473Z,46.13
2022-12-20T02:09:33.782Z,30.50
2022-12-20T02:12:05.147Z,40.30
2022-12-20T02:14:55.496Z,39.37
2022-12-20T02:17:25.725Z,51.43
2022-12-20T02:20:11.596Z,35.13
2022-12-20T02:22:52.743Z,33.47
2022-12-20T02:25:42.815Z,32.33
2022-12-20T02:28:31.882Z,36.80
2022-12-20T02:31:04.430Z,34.77
2022-12-20T02:33:31.967Z,34.60
2022-12-20T02:35:58.904Z,36.87
2022-12-20T02:38:31.484Z,48.53
2022-12-20T02:41:06.788Z,42.37
2022-12-20T02:43:54.638Z,36.33
2022-12-20T02:46:23.787Z,39.67
2022-12-20T02:48:52.193Z,35.37
2022-12-20T02:51:21.081Z,42.53
2022-12-20T02:53:48.444Z,36.57
2022-12-20T02:56:31.514Z,31.17
2022-12-20T02:59:01.715Z,39.97
2022-12-20T03:01:32.260Z,33.37
2022-12-20T03:04:00.001Z,34.17
2022-12-20T03:06:27.309Z,38.83
2022-12-20T03:08:54.767Z,37.00
2022-12-20T03:11:25.489Z,39.70
2022-12-20T03:13:53.019Z,43.20
2022-12-20T03:16:20.578Z,43.03
2022-12-20T03:18:48.229Z,40.83
2022-12-20T03:21:15.207Z,41.40
2022-12-20T03:23:42.484Z,39.97
2022-12-20T03:26:09.489Z,40.50
2022-12-20T03:28:42.237Z,42.37
2022-12-20T03:31:12.365Z,40.17
2022-12-20T03:33:46.109Z,40.17
2022-12-20T03:36:13.151Z,44.23
2022-12-20T03:38:41.193Z,41.13
2022-12-20T03:41:08.609Z,39.67
2022-12-20T03:43:35.852Z,37.43
2022-12-20T03:46:03.493Z,39.83
2022-12-20T03:48:35.147Z,41.73
2022-12-20T03:51:02.130Z,52.73
2022-12-20T03:53:30.738Z,48.97
2022-12-20T03:55:58.007Z,43.67
2022-12-20T03:58:25.511Z,40.37
2022-12-20T04:00:52.718Z,47.40
2022-12-20T04:03:42.044Z,41.43
2022-12-20T04:06:08.929Z,37.87
2022-12-20T04:08:36.093Z,47.67
2022-12-20T04:11:19.265Z,50.53
2022-12-20T04:14:02.790Z,39.77
2022-12-20T04:16:30.473Z,49.37
2022-12-20T04:18:58.048Z,47.67
2022-12-20T04:21:30.094Z,46.73
2022-12-20T04:23:59.262Z,36.77
2022-12-20T04:26:35.509Z,42.97
2022-12-20T04:29:04.571Z,44.33
2022-12-20T04:31:32.042Z,48.47
2022-12-20T04:34:00.412Z,45.23
2022-12-20T04:36:28.645Z,50.70
2022-12-20T04:38:57.585Z,44.40
2022-12-20T04:41:24.514Z,54.20
2022-12-20T04:43:58.486Z,45.33
2022-12-20T04:46:33.844Z,50.37
2022-12-20T04:49:02.303Z,48.10
2022-12-20T04:51:32.057Z,45.93
2022-12-20T04:53:59.593Z,51.50
2022-12-20T04:56:49.358Z,50.77
2022-12-20T04:59:20.715Z,49.50
2022-12-20T05:01:50.871Z,57.33
2022-12-20T05:04:37.620Z,51.37
2022-12-20T05:07:05.364Z,49.60
2022-12-20T05:09:33.369Z,48.20
2022-12-20T05:12:00.455Z,49.63
2022-12-20T05:14:27.661Z,53.70
2022-12-20T05:16:54.949Z,51.17
2022-12-20T05:19:22.146Z,47.97
2022-12-20T05:22:07.802Z,46.83
2022-12-20T05:24:56.775Z,44.63
2022-12-20T05:27:29.213Z,47.27
2022-12-20T05:29:56.466Z,50.63
2022-12-20T05:32:24.190Z,45.97
2022-12-20T05:34:53.570Z,50.13
2022-12-20T05:37:20.605Z,47.33
2022-12-20T05:39:48.048Z,46.10
2022-12-20T05:42:20.699Z,54.77
2022-12-20T05:44:51.583Z,48.30
2022-12-20T05:47:19.691Z,49.97
2022-12-20T05:49:47.125Z,46.20
2022-12-20T05:52:14.138Z,48.13
2022-12-20T05:54:42.178Z,53.90
2022-12-20T05:57:16.229Z,45.27
2022-12-20T05:59:43.736Z,49.17
2022-12-20T06:02:16.343Z,46.37
2022-12-20T06:04:44.502Z,45.63
2022-12-20T06:07:17.543Z,50.30
2022-12-20T06:09:47.702Z,53.03
2022-12-20T06:12:17.776Z,54.83
2022-12-20T06:14:46.473Z,55.53
2022-12-20T06:17:13.909Z,49.63
2022-12-20T06:19:44.026Z,44.60
2022-12-20T06:22:13.614Z,60.10
2022-12-20T06:24:49.023Z,52.37
2022-12-20T06:27:19.031Z,50.63
2022-12-20T06:29:54.619Z,45.40
2022-12-20T06:32:25.625Z,54.13
2022-12-20T06:34:53.768Z,46.87
2022-12-20T06:37:21.454Z,53.23
2022-12-20T06:39:49.490Z,58.37
2022-12-20T06:42:16.592Z,52.57
2022-12-20T06:44:45.233Z,56.67
2022-12-20T06:47:12.164Z,53.57
2022-12-20T06:49:39.452Z,55.83
2022-12-20T06:52:13.238Z,47.87
2022-12-20T06:54:49.561Z,48.27
2022-12-20T06:57:16.581Z,56.77
2022-12-20T06:59:47.249Z,55.53
2022-12-20T07:02:14.349Z,59.03
2022-12-20T07:04:41.720Z,57.23
2022-12-20T07:07:08.622Z,89.73
2022-12-20T07:09:35.829Z,55.37
2022-12-20T07:12:02.651Z,57.23
2022-12-20T07:14:29.929Z,51.60
2022-12-20T07:16:56.788Z,64.30
2022-12-20T07:19:24.002Z,69.03
2022-12-20T07:21:52.763Z,59.17
2022-12-20T07:24:20.273Z,63.80
2022-12-20T07:26:47.167Z,63.47
2022-12-20T07:29:15.905Z,62.30
2022-12-20T07:31:43.234Z,57.70
2022-12-20T07:34:11.645Z,55.03
2022-12-20T07:36:38.701Z,52.80
2022-12-20T07:39:05.971Z,59.63
2022-12-20T07:41:32.892Z,58.03
2022-12-20T07:44:00.254Z,63.50
2022-12-20T07:46:27.745Z,56.17
2022-12-20T07:48:55.617Z,55.87
2022-12-20T07:51:26.557Z,67.70
2022-12-20T07:54:03.460Z,60.93
2022-12-20T07:56:39.157Z,64.90
2022-12-20T07:59:10.711Z,65.10
2022-12-20T08:01:37.703Z,60.07
2022-12-20T08:04:09.139Z,64.33
2022-12-20T08:06:37.331Z,69.57
2022-12-20T08:09:05.901Z,65.03
2022-12-20T08:11:35.334Z,64.13
2022-12-20T08:14:03.291Z,60.97
2022-12-20T08:16:31.231Z,63.40
2022-12-20T08:18:58.680Z,59.50
2022-12-20T08:21:25.880Z,92.40
2022-12-20T08:23:53.061Z,76.90
2022-12-20T08:26:20.216Z,129.23
2022-12-20T08:28:47.398Z,131.20
2022-12-20T08:31:14.485Z,105.60
2022-12-20T08:33:42.487Z,285.77
2022-12-20T08:36:12.533Z,128.77
2022-12-20T08:38:40.305Z,96.70
2022-12-20T08:41:13.003Z,124.90
2022-12-20T08:43:40.772Z,130.60
2022-12-20T08:46:09.707Z,105.20
2022-12-20T08:48:37.121Z,137.57
2022-12-20T08:51:06.840Z,91.87
2022-12-20T08:53:35.076Z,91.60
2022-12-20T08:56:14.113Z,79.87
2022-12-20T08:58:42.869Z,75.67
2022-12-20T09:01:15.196Z,74.60
2022-12-20T09:03:43.187Z,75.53
2022-12-20T09:06:16.870Z,68.20
2022-12-20T09:08:44.606Z,71.83
2022-12-20T09:11:20.865Z,65.70
2022-12-20T09:13:49.760Z,71.07
2022-12-20T09:16:20.138Z,70.00
2022-12-20T09:18:51.875Z,61.73
2022-12-20T09:21:19.753Z,59.70
2022-12-20T09:23:48.438Z,78.27
2022-12-20T09:26:16.469Z,69.13
2022-12-20T09:28:44.502Z,78.90
2022-12-20T09:31:16.654Z,95.13
2022-12-20T09:33:44.799Z,68.07
2022-12-20T09:36:14.480Z,68.33
2022-12-20T09:38:41.844Z,74.13
2022-12-20T09:41:37.354Z,73.03
2022-12-20T09:44:29.053Z,63.47
2022-12-20T09:47:03.522Z,67.53
2022-12-20T09:49:36.130Z,88.23
2022-12-20T09:52:32.465Z,83.27
2022-12-20T09:55:18.280Z,64.50
2022-12-20T09:58:23.708Z,88.20
2022-12-20T10:00:54.369Z,82.33
2022-12-20T10:03:33.628Z,92.03
2022-12-20T10:06:11.598Z,77.37
2022-12-20T10:08:56.497Z,76.70
2022-12-20T10:11:55.029Z,80.27
2022-12-20T10:14:30.739Z,68.07
2022-12-20T10:17:26.172Z,90.00
2022-12-20T10:20:14.389Z,65.03
2022-12-20T10:23:13.540Z,73.83
2022-12-20T10:25:41.786Z,62.60
2022-12-20T10:28:15.607Z,70.73
2022-12-20T10:30:43.597Z,70.37
2022-12-20T10:33:24.215Z,72.53
2022-12-20T10:35:52.345Z,78.30
2022-12-20T10:38:20.782Z,65.77
2022-12-20T10:43:50.011Z,77.67
2022-12-20T10:46:17.198Z,72.67
2022-12-20T10:48:46.545Z,95.80
2022-12-20T10:51:17.103Z,78.13
2022-12-20T10:53:50.879Z,68.57
2022-12-20T10:56:27.512Z,70.27
2022-12-20T10:59:17.753Z,88.87
2022-12-20T11:01:46.367Z,79.97
2022-12-20T11:04:33.230Z,77.87
2022-12-20T11:07:02.382Z,88.07
2022-12-20T11:09:36.662Z,89.90
2022-12-20T11:12:09.610Z,92.50
2022-12-20T11:14:39.647Z,85.30
2022-12-20T11:17:34.403Z,74.80
2022-12-20T11:20:26.601Z,73.97
2022-12-20T11:23:00.568Z,69.37
2022-12-20T11:25:33.649Z,72.37
2022-12-20T11:28:25.228Z,70.87
2022-12-20T11:31:06.211Z,62.80
2022-12-20T11:33:56.455Z,64.07
2022-12-20T11:37:04.142Z,64.03
2022-12-20T11:40:08.352Z,63.17
2022-12-20T11:42:59.683Z,62.90
2022-12-20T11:45:42.198Z,75.13
2022-12-20T11:48:48.704Z,68.37
2022-12-20T11:51:26.943Z,65.20
2022-12-20T11:53:59.311Z,70.67
2022-12-20T11:56:31.532Z,72.93
2022-12-20T11:59:42.783Z,67.47
2022-12-20T12:02:14.022Z,64.13
2022-12-20T12:05:03.775Z,63.63
2022-12-20T12:07:35.132Z,71.90
2022-12-20T12:10:36.158Z,63.47
2022-12-20T12:13:20.406Z,61.90
2022-12-20T12:15:59.983Z,60.47
2022-12-20T12:18:32.148Z,57.70
2022-12-20T12:21:10.113Z,57.80
2022-12-20T12:23:47.572Z,62.13
2022-12-20T12:26:35.810Z,66.73
2022-12-20T12:29:06.940Z,62.07
2022-12-20T12:31:41.142Z,74.23
2022-12-20T12:34:08.096Z,71.83
2022-12-20T12:37:01.514Z,62.27
2022-12-20T12:39:36.311Z,65.27
2022-12-20T12:42:41.657Z,66.30
2022-12-20T12:45:16.889Z,62.57
2022-12-20T12:47:52.807Z,63.70
2022-12-20T12:50:29.367Z,58.67
2022-12-20T12:52:59.333Z,62.33
2022-12-20T12:55:38.442Z,69.47
2022-12-20T12:58:30.473Z,58.63
2022-12-20T13:01:07.754Z,60.57
2022-12-20T13:03:37.975Z,64.57
2022-12-20T13:06:23.642Z,56.13
2022-12-20T13:08:56.675Z,55.77
2022-12-20T13:11:46.680Z,58.20
2022-12-20T13:14:17.549Z,55.50
2022-12-20T13:19:35.702Z,56.23
2022-12-20T13:22:11.868Z,52.73
2022-12-20T13:24:50.747Z,55.23
2022-12-20T13:27:29.239Z,62.30
2022-12-20T13:30:00.757Z,49.47
2022-12-20T13:32:49.410Z,53.70
2022-12-20T13:35:25.859Z,57.70
2022-12-20T13:38:25.948Z,51.50
2022-12-20T13:40:58.280Z,57.20
2022-12-20T13:43:32.832Z,64.10
2022-12-20T13:46:13.466Z,52.53
2022-12-20T13:48:46.570Z,52.80
2022-12-20T13:51:21.717Z,52.27
2022-12-20T13:53:58.360Z,55.10
2022-12-20T13:56:28.910Z,59.40
2022-12-20T13:58:58.835Z,68.03
2022-12-20T14:01:26.825Z,56.17
2022-12-20T14:03:54.434Z,50.53
2022-12-20T14:06:26.888Z,48.40
2022-12-20T14:08:54.702Z,50.47
2022-12-20T14:11:29.273Z,55.30
2022-12-20T14:13:56.225Z,55.70
2022-12-20T14:16:25.803Z,56.77
2022-12-20T14:19:07.121Z,56.90
2022-12-20T14:21:41.951Z,53.80
2022-12-20T14:24:15.902Z,55.63
2022-12-20T14:26:48.151Z,55.77
2022-12-20T14:29:30.551Z,58.53
2022-12-20T14:31:58.072Z,55.43
2022-12-20T14:34:33.054Z,61.83
2022-12-20T14:37:24.329Z,59.57
2022-12-20T14:40:09.712Z,56.30
2022-12-20T14:42:39.175Z,67.10
2022-12-20T14:45:27.112Z,62.40
2022-12-20T14:47:57.763Z,54.40
2022-12-20T14:50:32.039Z,61.37
2022-12-20T14:52:59.683Z,58.87
2022-12-20T14:56:31.357Z,61.83
2022-12-20T14:59:07.080Z,55.07
2022-12-20T15:01:39.927Z,62.53
2022-12-20T15:04:31.909Z,58.00
2022-12-20T15:06:59.701Z,56.00
2022-12-20T15:09:27.421Z,59.37
2022-12-20T15:11:56.091Z,81.13
2022-12-20T15:14:37.347Z,55.30
2022-12-20T15:17:09.985Z,64.30
2022-12-20T15:19:41.981Z,59.93
2022-12-20T15:22:17.323Z,54.90
2022-12-20T15:24:44.611Z,66.27
2022-12-20T15:27:14.089Z,65.63
2022-12-20T15:29:41.976Z,74.90
2022-12-20T15:32:19.352Z,75.17
2022-12-20T15:34:46.622Z,61.57
2022-12-20T15:37:18.418Z,61.83
2022-12-20T15:39:46.394Z,98.73
2022-12-20T15:42:17.735Z,126.90
2022-12-20T15:44:45.176Z,63.20
2022-12-20T15:47:16.356Z,73.63
2022-12-20T15:49:49.729Z,61.90
2022-12-20T15:52:22.120Z,71.87
2022-12-20T15:54:50.262Z,113.13
2022-12-20T15:57:17.324Z,75.53
2022-12-20T16:00:06.044Z,61.27
2022-12-20T16:02:40.523Z,59.60
2022-12-20T16:05:11.743Z,70.17
2022-12-20T16:07:38.737Z,67.50
2022-12-20T16:10:08.828Z,69.83
2022-12-20T16:12:36.800Z,83.00
2022-12-20T16:15:05.252Z,75.80
2022-12-20T16:17:32.415Z,58.67
2022-12-20T16:19:59.720Z,56.97
2022-12-20T16:22:26.923Z,62.63
2022-12-20T16:24:54.433Z,64.17
2022-12-20T16:27:21.709Z,71.07
2022-12-20T16:29:49.031Z,55.70
2022-12-20T16:32:17.866Z,52.37
2022-12-20T16:34:45.612Z,59.60
2022-12-20T16:37:12.888Z,55.07
2022-12-20T16:39:40.874Z,111.73
2022-12-20T16:42:17.055Z,131.17
2022-12-20T16:44:45.688Z,311.40
2022-12-20T16:47:14.240Z,68.77
2022-12-20T16:49:51.132Z,65.63
2022-12-20T16:52:20.096Z,58.90
2022-12-20T16:54:47.379Z,63.97
2022-12-20T16:57:14.334Z,93.23
2022-12-20T16:59:41.616Z,61.00
2022-12-20T17:02:30.848Z,59.33
2022-12-20T17:04:59.205Z,59.20
2022-12-20T17:07:26.208Z,59.57
2022-12-20T17:10:12.101Z,70.60
2022-12-20T17:12:39.487Z,54.47
2022-12-20T17:15:08.216Z,57.43
2022-12-20T17:17:35.128Z,54.83
2022-12-20T17:20:02.431Z,124.27
2022-12-20T17:25:29.394Z,112.87
2022-12-20T17:27:56.478Z,91.00
2022-12-20T17:30:25.090Z,51.50
2022-12-20T17:32:53.519Z,64.80
2022-12-20T17:35:32.039Z,56.97
2022-12-20T17:38:00.604Z,56.90
2022-12-20T17:40:28.698Z,62.40
2022-12-20T17:42:56.008Z,54.83
2022-12-20T17:45:27.547Z,57.17
2022-12-20T17:47:55.187Z,99.73
2022-12-20T17:50:23.011Z,114.47
2022-12-20T17:52:50.487Z,138.07
2022-12-20T17:55:23.495Z,76.43
2022-12-20T17:57:50.785Z,61.20
2022-12-20T18:00:22.875Z,51.13
2022-12-20T18:02:50.038Z,65.67
2022-12-20T18:05:17.843Z,53.50
2022-12-20T18:07:49.723Z,84.13
2022-12-20T18:10:17.110Z,75.73
2022-12-20T18:12:44.181Z,136.97
2022-12-20T18:15:11.970Z,78.07
2022-12-20T18:17:39.099Z,85.07
2022-12-20T18:20:09.375Z,66.60
2022-12-20T18:22:36.871Z,64.67
2022-12-20T18:25:07.080Z,56.67
2022-12-20T18:27:42.311Z,61.23
2022-12-20T18:30:12.229Z,58.87
2022-12-20T18:32:40.868Z,50.73
2022-12-20T18:35:09.374Z,57.53
2022-12-20T18:37:36.792Z,80.07
2022-12-20T18:40:04.324Z,86.80
2022-12-20T18:42:32.550Z,70.80
2022-12-20T18:44:59.490Z,86.97
2022-12-20T18:47:26.902Z,87.03
2022-12-20T18:49:53.919Z,101.93
2022-12-20T18:52:21.500Z,158.27
2022-12-20T18:54:48.549Z,195.47
2022-12-20T18:57:15.814Z,145.63
2022-12-20T18:59:42.773Z,142.47
2022-12-20T19:02:12.160Z,93.70
2022-12-20T19:04:39.261Z,76.37
2022-12-20T19:07:06.495Z,104.60
2022-12-20T19:09:33.454Z,135.37
2022-12-20T19:12:00.706Z,108.10
2022-12-20T19:14:27.740Z,92.17
2022-12-20T19:16:55.375Z,70.50
2022-12-20T19:19:22.858Z,86.10
2022-12-20T19:21:50.321Z,79.70
2022-12-20T19:24:17.454Z,88.73
2022-12-20T19:26:44.865Z,72.37
2022-12-20T19:29:11.973Z,72.43
2022-12-20T19:31:39.259Z,135.33
2022-12-20T19:34:10.093Z,92.63
2022-12-20T19:36:42.847Z,84.67
2022-12-20T19:39:20.852Z,72.27
2022-12-20T19:42:15.587Z,83.97
2022-12-20T19:44:35.686Z,78.37
2022-12-20T19:47:05.816Z,69.47
2022-12-20T19:49:33.570Z,69.00
2022-12-20T19:52:00.811Z,73.40
2022-12-20T19:54:28.913Z,68.20
2022-12-20T19:56:57.530Z,72.67
2022-12-20T19:59:25.025Z,64.40
2022-12-20T20:01:52.331Z,67.27
2022-12-20T20:04:19.382Z,71.97
2022-12-20T20:06:46.591Z,72.10
2022-12-20T20:09:13.797Z,66.30
2022-12-20T20:11:41.001Z,64.07
2022-12-20T20:14:10.165Z,71.97
2022-12-20T20:16:37.948Z,62.63
2022-12-20T20:19:05.693Z,68.97
2022-12-20T20:21:36.335Z,63.50
2022-12-20T20:24:03.574Z,67.53
2022-12-20T20:26:31.845Z,86.50
2022-12-20T20:29:01.054Z,64.43
2022-12-20T20:31:28.360Z,65.93
2022-12-20T20:33:57.673Z,62.93
2022-12-20T20:36:24.923Z,56.97
2022-12-20T20:38:52.473Z,67.03
2022-12-20T20:41:19.942Z,54.60
2022-12-20T20:43:47.062Z,58.87
2022-12-20T20:46:15.827Z,63.17
2022-12-20T20:48:43.974Z,59.20
2022-12-20T20:51:11.582Z,62.30
2022-12-20T20:53:39.334Z,58.57
2022-12-20T20:56:07.352Z,64.93
2022-12-20T20:58:35.400Z,59.00
2022-12-20T21:01:05.456Z,62.47
2022-12-20T21:03:33.035Z,64.17
2022-12-20T21:06:34.970Z,56.83
2022-12-20T21:08:47.382Z,72.77
2022-12-20T21:11:14.816Z,63.50
2022-12-20T21:13:41.924Z,63.40
2022-12-20T21:16:16.264Z,55.30
2022-12-20T21:18:43.286Z,60.83
2022-12-20T21:21:11.918Z,58.33
2022-12-20T21:23:42.302Z,63.30
2022-12-20T21:26:09.634Z,57.40
2022-12-20T21:28:36.587Z,59.57
2022-12-20T21:31:06.654Z,57.17
2022-12-20T21:33:33.770Z,60.37
2022-12-20T21:36:11.129Z,62.10
2022-12-20T21:38:38.083Z,53.97
2022-12-20T21:41:11.829Z,55.13
2022-12-20T21:43:39.058Z,57.53
2022-12-20T21:46:11.292Z,58.47
2022-12-20T21:48:39.757Z,52.87
2022-12-20T21:51:10.334Z,54.83
2022-12-20T21:53:42.380Z,54.70
2022-12-20T21:56:09.783Z,59.67
2022-12-20T21:58:36.960Z,52.37
2022-12-20T22:01:05.305Z,54.73
2022-12-20T22:03:32.358Z,60.53
2022-12-20T22:05:59.659Z,55.00
2022-12-20T22:08:28.003Z,59.37
2022-12-20T22:11:01.830Z,49.47
2022-12-20T22:13:33.099Z,59.23
2022-12-20T22:16:26.747Z,56.53
2022-12-20T22:18:55.335Z,53.13
2022-12-20T22:21:24.926Z,56.73
2022-12-20T22:23:52.165Z,59.57
2022-12-20T22:26:21.386Z,54.17
2022-12-20T22:28:51.051Z,65.07
2022-12-20T22:31:18.928Z,60.37
2022-12-20T22:33:46.335Z,54.37
2022-12-20T22:36:15.089Z,58.13
2022-12-20T22:38:43.427Z,58.53
2022-12-20T22:41:13.377Z,54.67
2022-12-20T22:43:41.361Z,54.90
2022-12-20T22:46:15.466Z,53.60
2022-12-20T22:48:43.215Z,55.80
2022-12-20T22:51:11.827Z,58.33
2022-12-20T22:53:38.875Z,55.40
2022-12-20T22:56:06.988Z,54.60
2022-12-20T22:58:34.975Z,61.63
2022-12-20T23:01:04.866Z,58.90
2022-12-20T23:03:32.566Z,55.53
2022-12-20T23:06:02.000Z,55.43
2022-12-20T23:08:33.006Z,56.50
2022-12-20T23:11:19.072Z,57.97
2022-12-20T23:14:04.772Z,53.00
2022-12-20T23:16:32.048Z,55.73
2022-12-20T23:19:01.307Z,54.33
2022-12-20T23:21:48.538Z,56.27
2022-12-20T23:24:15.939Z,56.07
2022-12-20T23:26:43.531Z,54.17
2022-12-20T23:29:11.423Z,51.73
2022-12-20T23:31:38.722Z,55.37
2022-12-20T23:34:05.752Z,52.67
2022-12-20T23:36:33.434Z,49.77
2022-12-20T23:39:00.465Z,54.23
2022-12-20T23:41:28.203Z,53.67
2022-12-20T23:43:55.410Z,51.57
2022-12-20T23:46:22.877Z,53.67
2022-12-20T23:48:53.496Z,58.63
2022-12-20T23:51:21.617Z,51.10
2022-12-20T23:53:50.602Z,55.60
2022-12-20T23:56:20.069Z,53.80
2022-12-20T23:58:51.466Z,51.97
